Time;durP1;ratioP1;P1;durP2;ratioP2;P2;SDS_P1;SDS_P2;PMS_P1;PMS_P2;Temp;Humidity;BMP_temperature;BMP_pressure;BME280_temperature;BME280_humidity;BME280_pressure;Samples;Min_cycle;Max_cycle;Signal;HPM_P1;HPM_P2
2021/12/04 00:00:49;;;;;;;4.40;2.55;;;;;;;;;;5035796;28;20041;-77
2021/12/04 00:03:15;;;;;;;4.63;2.67;;;;;;;;;;5036316;28;20041;-77
2021/12/04 00:05:47;;;;;;;4.78;2.97;;;;;;;;;;5036311;28;20038;-79
2021/12/04 00:08:13;;;;;;;3.80;2.70;;;;;;;;;;5040520;28;20113;-81
2021/12/04 00:10:39;;;;;;;13.50;2.90;;;;;;;;;;5034843;28;20539;-78
2021/12/04 00:13:05;;;;;;;3.70;2.30;;;;;;;;;;5036239;28;20045;-76
2021/12/04 00:15:31;;;;;;;7.82;2.13;;;;;;;;;;5039881;28;20037;-76
2021/12/04 00:17:59;;;;;;;4.15;2.42;;;;;;;;;;5041577;28;20105;-76
2021/12/04 00:20:27;;;;;;;3.35;2.30;;;;;;;;;;5028321;28;20037;-77
2021/12/04 00:22:56;;;;;;;3.35;2.17;;;;;;;;;;5032321;28;20291;-76
2021/12/04 00:25:22;;;;;;;4.75;2.25;;;;;;;;;;5039158;28;20107;-79
2021/12/04 00:27:48;;;;;;;3.28;2.15;;;;;;;;;;5036716;28;20377;-79
2021/12/04 00:30:14;;;;;;;4.68;2.35;;;;;;;;;;5037188;28;20045;-79
2021/12/04 00:32:42;;;;;;;2.95;1.95;;;;;;;;;;5037340;28;20076;-80
2021/12/04 00:35:18;;;;;;;4.63;2.22;;;;;;;;;;5037794;28;20045;-79
2021/12/04 00:51:13;;;;;;;3.08;2.17;;;;;;;;;;5039038;28;20045;-77
2021/12/04 00:53:39;;;;;;;3.70;2.33;;;;;;;;;;5039055;28;20037;-77
2021/12/04 00:56:06;;;;;;;3.20;2.22;;;;;;;;;;5040952;28;20043;-77
2021/12/04 00:58:32;;;;;;;2.92;2.25;;;;;;;;;;5040053;28;20112;-78
2021/12/04 01:00:58;;;;;;;2.97;2.22;;;;;;;;;;5039790;28;20452;-77
2021/12/04 01:03:24;;;;;;;3.78;2.40;;;;;;;;;;5039523;28;20746;-77
2021/12/04 01:05:50;;;;;;;5.68;2.67;;;;;;;;;;5040234;28;20089;-77
2021/12/04 01:08:16;;;;;;;4.47;2.53;;;;;;;;;;5040205;28;20049;-75
2021/12/04 01:10:42;;;;;;;4.28;2.88;;;;;;;;;;5039485;28;20048;-77
2021/12/04 01:13:11;;;;;;;4.22;2.92;;;;;;;;;;5023139;28;20412;-77
2021/12/04 01:15:38;;;;;;;3.22;2.53;;;;;;;;;;5039810;28;20446;-77
2021/12/04 01:18:04;;;;;;;5.50;2.90;;;;;;;;;;5040822;28;20038;-76
2021/12/04 01:20:31;;;;;;;7.28;2.95;;;;;;;;;;5039818;28;20049;-78
2021/12/04 01:22:57;;;;;;;4.93;2.88;;;;;;;;;;5040950;28;20068;-76
2021/12/04 01:25:23;;;;;;;3.33;2.40;;;;;;;;;;5041706;28;20045;-79
2021/12/04 01:27:49;;;;;;;4.57;2.90;;;;;;;;;;5040857;28;20120;-79
2021/12/04 01:30:15;;;;;;;3.97;2.70;;;;;;;;;;5041137;28;20067;-79
2021/12/04 01:32:41;;;;;;;4.65;2.75;;;;;;;;;;5040187;28;20093;-78
2021/12/04 01:35:07;;;;;;;5.30;2.92;;;;;;;;;;5022996;28;20095;-76
2021/12/04 01:37:33;;;;;;;5.03;2.85;;;;;;;;;;5040045;28;20041;-76
2021/12/04 01:39:59;;;;;;;4.00;2.85;;;;;;;;;;5040574;28;20037;-79
2021/12/04 01:42:25;;;;;;;8.48;2.58;;;;;;;;;;5041905;28;20045;-79
2021/12/04 01:44:52;;;;;;;5.97;2.78;;;;;;;;;;5041846;28;20042;-79
2021/12/04 01:47:21;;;;;;;4.50;2.22;;;;;;;;;;5041053;28;20041;-76
2021/12/04 01:49:52;;;;;;;2.92;2.28;;;;;;;;;;5041113;28;20045;-77
2021/12/04 01:52:18;;;;;;;4.30;2.53;;;;;;;;;;5042753;28;20059;-76
2021/12/04 01:54:45;;;;;;;4.22;2.38;;;;;;;;;;5026839;28;20041;-77
2021/12/04 01:57:12;;;;;;;4.40;2.45;;;;;;;;;;5049577;28;20725;-79
2021/12/04 01:59:38;;;;;;;3.78;2.90;;;;;;;;;;5042532;28;20456;-78
2021/12/04 02:02:04;;;;;;;3.40;2.58;;;;;;;;;;5045695;28;20042;-78
2021/12/04 02:04:30;;;;;;;3.65;2.50;;;;;;;;;;5035847;28;20049;-79
2021/12/04 02:06:56;;;;;;;4.57;2.72;;;;;;;;;;5043786;28;20045;-79
2021/12/04 02:09:22;;;;;;;4.75;3.00;;;;;;;;;;5044211;28;20084;-80
2021/12/04 02:11:48;;;;;;;4.07;2.60;;;;;;;;;;5038468;28;20052;-78
2021/12/04 02:14:14;;;;;;;4.25;2.63;;;;;;;;;;5039658;28;20041;-77
2021/12/04 02:16:40;;;;;;;4.45;2.70;;;;;;;;;;5039226;28;20076;-77
2021/12/04 02:19:06;;;;;;;5.15;3.03;;;;;;;;;;5040023;28;20056;-78
2021/12/04 02:21:32;;;;;;;4.63;3.08;;;;;;;;;;5042253;28;20112;-79
2021/12/04 02:23:58;;;;;;;4.43;3.00;;;;;;;;;;5040618;28;20402;-79
2021/12/04 02:26:24;;;;;;;4.25;2.78;;;;;;;;;;5021234;28;20124;-77
2021/12/04 02:28:50;;;;;;;3.63;2.78;;;;;;;;;;5039302;28;20080;-77
2021/12/04 02:31:17;;;;;;;4.10;2.90;;;;;;;;;;5039364;28;20041;-79
2021/12/04 02:33:43;;;;;;;7.20;3.15;;;;;;;;;;5041331;28;20076;-78
2021/12/04 02:36:09;;;;;;;4.70;2.72;;;;;;;;;;5041755;28;20037;-79
2021/12/04 02:38:35;;;;;;;4.63;3.13;;;;;;;;;;5040261;28;20044;-77
2021/12/04 02:41:01;;;;;;;3.60;3.03;;;;;;;;;;5038287;28;20093;-76
2021/12/04 02:43:27;;;;;;;3.92;2.90;;;;;;;;;;5039983;28;20041;-77
2021/12/04 02:45:53;;;;;;;3.95;3.05;;;;;;;;;;5039133;28;20045;-76
2021/12/04 02:48:19;;;;;;;3.92;2.90;;;;;;;;;;5039320;28;20421;-78
2021/12/04 02:50:46;;;;;;;4.85;3.00;;;;;;;;;;5052000;28;20025;-78
2021/12/04 02:53:12;;;;;;;5.88;3.15;;;;;;;;;;5052172;28;20041;-77
2021/12/04 02:55:38;;;;;;;3.65;2.78;;;;;;;;;;5045418;28;20097;-78
2021/12/04 02:58:04;;;;;;;4.47;3.00;;;;;;;;;;5038145;28;20088;-78
2021/12/04 03:00:30;;;;;;;5.10;2.60;;;;;;;;;;5038649;28;20077;-79
2021/12/04 03:02:56;;;;;;;4.50;2.92;;;;;;;;;;5038179;28;20049;-79
2021/12/04 03:05:24;;;;;;;3.67;3.00;;;;;;;;;;5039902;28;20051;-80
2021/12/04 03:07:51;;;;;;;4.18;2.78;;;;;;;;;;5021586;28;20456;-77
2021/12/04 03:10:17;;;;;;;3.80;2.92;;;;;;;;;;5037634;28;20042;-79
2021/12/04 03:12:43;;;;;;;5.50;2.95;;;;;;;;;;5042754;28;20048;-78
2021/12/04 03:15:09;;;;;;;5.20;2.97;;;;;;;;;;5043578;28;20041;-80
2021/12/04 03:17:36;;;;;;;5.60;3.42;;;;;;;;;;5038418;28;20091;-77
2021/12/04 03:20:02;;;;;;;4.57;3.15;;;;;;;;;;5038030;28;20183;-77
2021/12/04 03:22:29;;;;;;;4.85;2.95;;;;;;;;;;5038215;28;20057;-79
2021/12/04 03:24:56;;;;;;;3.63;2.72;;;;;;;;;;5039005;28;20120;-79
2021/12/04 03:27:23;;;;;;;11.50;3.08;;;;;;;;;;5043189;28;20045;-79
2021/12/04 03:30:00;;;;;;;4.63;3.10;;;;;;;;;;5040411;28;20067;-77
2021/12/04 03:35:25;;;;;;;4.05;2.92;;;;;;;;;;5040544;28;20095;-80
2021/12/04 03:40:48;;;;;;;5.07;3.33;;;;;;;;;;5039612;28;20041;-78
2021/12/04 03:43:14;;;;;;;5.10;2.88;;;;;;;;;;5025677;28;20112;-78
2021/12/04 03:45:44;;;;;;;5.15;3.50;;;;;;;;;;5020223;28;20450;-77
2021/12/04 03:50:54;;;;;;;7.32;3.85;;;;;;;;;;5038979;28;20045;-77
2021/12/04 03:53:20;;;;;;;8.18;3.22;;;;;;;;;;5036589;28;20087;-77
2021/12/04 03:55:46;;;;;;;5.70;3.50;;;;;;;;;;5039054;28;20045;-76
2021/12/04 03:58:12;;;;;;;5.30;3.95;;;;;;;;;;5020560;28;20034;-77
2021/12/04 04:00:38;;;;;;;4.07;3.30;;;;;;;;;;5037390;28;20458;-78
2021/12/04 04:03:04;;;;;;;6.53;4.13;;;;;;;;;;5039092;28;20075;-77
2021/12/04 04:05:30;;;;;;;6.50;3.63;;;;;;;;;;5038534;28;20037;-78
2021/12/04 04:07:56;;;;;;;4.63;3.33;;;;;;;;;;5052995;28;20041;-77
2021/12/04 04:10:23;;;;;;;6.78;3.80;;;;;;;;;;5058074;28;20041;-77
2021/12/04 04:12:49;;;;;;;4.82;3.42;;;;;;;;;;5058626;28;20026;-79
2021/12/04 04:15:15;;;;;;;4.47;3.08;;;;;;;;;;5041300;28;20042;-76
2021/12/04 04:17:42;;;;;;;4.90;2.88;;;;;;;;;;5058282;28;20089;-76
2021/12/04 04:20:12;;;;;;;10.93;3.58;;;;;;;;;;5057537;28;20022;-76
2021/12/04 04:22:38;;;;;;;4.82;3.38;;;;;;;;;;5058298;28;20029;-76
2021/12/04 04:25:04;;;;;;;5.00;3.72;;;;;;;;;;5058391;28;20061;-77
2021/12/04 04:27:30;;;;;;;5.35;3.90;;;;;;;;;;5041437;28;20055;-77
2021/12/04 04:29:56;;;;;;;5.32;3.53;;;;;;;;;;5058495;28;20021;-77
2021/12/04 04:32:24;;;;;;;8.25;3.58;;;;;;;;;;5058030;28;20041;-77
2021/12/04 04:34:53;;;;;;;5.35;3.67;;;;;;;;;;5041382;28;20077;-77
2021/12/04 05:15:34;;;;;;;5.35;3.40;;;;;;;;;;5043542;28;20492;-78
2021/12/04 05:20:35;;;;;;;5.10;3.55;;;;;;;;;;5049230;28;19916;-78
2021/12/04 05:23:01;;;;;;;4.47;3.40;;;;;;;;;;5048334;28;20049;-76
2021/12/04 05:25:29;;;;;;;7.65;4.03;;;;;;;;;;5034056;28;20507;-76
2021/12/04 05:27:55;;;;;;;5.43;3.75;;;;;;;;;;5049828;28;20044;-75
2021/12/04 05:30:21;;;;;;;4.50;3.50;;;;;;;;;;5050367;28;20045;-76
2021/12/04 05:32:47;;;;;;;4.70;3.40;;;;;;;;;;5034105;28;20099;-75
2021/12/04 05:35:13;;;;;;;8.05;3.38;;;;;;;;;;5052009;28;20338;-75
2021/12/04 05:37:39;;;;;;;4.63;3.45;;;;;;;;;;5051977;28;20037;-75
2021/12/04 05:40:10;;;;;;;5.40;3.40;;;;;;;;;;5034279;28;20113;-77
2021/12/04 05:42:36;;;;;;;5.72;3.50;;;;;;;;;;5047921;28;20037;-77
2021/12/04 05:45:02;;;;;;;6.53;2.92;;;;;;;;;;5044218;28;20049;-77
2021/12/04 05:47:38;;;;;;;3.72;3.03;;;;;;;;;;5044897;28;20084;-78
2021/12/04 05:55:18;;;;;;;5.30;3.40;;;;;;;;;;5046642;28;20038;-74
2021/12/04 05:57:44;;;;;;;4.60;3.10;;;;;;;;;;5030731;28;20037;-75
2021/12/04 06:00:20;;;;;;;4.97;3.20;;;;;;;;;;5046464;28;20038;-77
2021/12/04 06:02:46;;;;;;;5.78;3.75;;;;;;;;;;5033939;28;20040;-77
2021/12/04 06:05:12;;;;;;;7.47;3.22;;;;;;;;;;5048901;28;20041;-76
2021/12/04 06:07:38;;;;;;;5.72;3.53;;;;;;;;;;5048603;28;20041;-78
2021/12/04 06:10:04;;;;;;;8.48;3.55;;;;;;;;;;5029996;28;20101;-76
2021/12/04 06:12:31;;;;;;;5.40;3.65;;;;;;;;;;5035108;28;20045;-78
2021/12/04 06:14:57;;;;;;;8.85;4.22;;;;;;;;;;5030386;28;20037;-76
2021/12/04 06:17:25;;;;;;;6.20;4.25;;;;;;;;;;5045737;28;20136;-78
2021/12/04 06:22:37;;;;;;;6.57;4.40;;;;;;;;;;5025878;28;20072;-77
2021/12/04 06:25:04;;;;;;;6.22;3.85;;;;;;;;;;5028421;28;20072;-75
2021/12/04 06:27:30;;;;;;;7.70;4.72;;;;;;;;;;5044692;28;20048;-78
2021/12/04 06:29:56;;;;;;;6.47;4.40;;;;;;;;;;5044877;28;20033;-79
2021/12/04 06:32:22;;;;;;;7.13;4.43;;;;;;;;;;5045596;28;20037;-78
2021/12/04 06:34:48;;;;;;;6.70;5.07;;;;;;;;;;5042707;28;20048;-77
2021/12/04 06:37:15;;;;;;;6.63;4.50;;;;;;;;;;5044454;28;20041;-77
2021/12/04 06:39:41;;;;;;;6.53;4.70;;;;;;;;;;5028426;28;20104;-74
2021/12/04 06:42:07;;;;;;;6.03;4.40;;;;;;;;;;5044660;28;20412;-76
2021/12/04 06:44:33;;;;;;;8.35;5.35;;;;;;;;;;5048359;28;20045;-78
2021/12/04 06:47:00;;;;;;;7.32;5.38;;;;;;;;;;5048455;28;20037;-83
2021/12/04 06:49:33;;;;;;;11.85;6.43;;;;;;;;;;5031394;28;20492;-83
2021/12/04 06:52:03;;;;;;;9.05;6.78;;;;;;;;;;5048731;28;20038;-83
2021/12/04 06:54:35;;;;;;;9.98;6.65;;;;;;;;;;5032237;28;20033;-82
2021/12/04 06:57:03;;;;;;;10.17;6.20;;;;;;;;;;5048237;28;20098;-83
2021/12/04 06:59:32;;;;;;;14.68;7.35;;;;;;;;;;5031061;28;20037;-83
2021/12/04 07:01:58;;;;;;;12.80;7.22;;;;;;;;;;5047937;28;20116;-82
2021/12/04 07:04:31;;;;;;;10.57;6.63;;;;;;;;;;5047418;28;20459;-83
2021/12/04 07:06:57;;;;;;;11.95;6.97;;;;;;;;;;5031887;28;20097;-83
2021/12/04 07:09:23;;;;;;;14.43;7.82;;;;;;;;;;5030760;28;20058;-80
2021/12/04 07:11:49;;;;;;;9.38;6.80;;;;;;;;;;5046500;28;20093;-81
2021/12/04 07:14:15;;;;;;;10.80;7.45;;;;;;;;;;5047637;28;20038;-79
2021/12/04 07:16:41;;;;;;;10.73;7.25;;;;;;;;;;5046373;28;20121;-80
2021/12/04 07:19:07;;;;;;;10.57;7.35;;;;;;;;;;5029440;28;20048;-81
2021/12/04 07:21:33;;;;;;;12.48;7.75;;;;;;;;;;5047772;28;20041;-81
2021/12/04 07:23:59;;;;;;;10.23;7.15;;;;;;;;;;5031634;28;20046;-82
2021/12/04 07:26:25;;;;;;;9.05;6.45;;;;;;;;;;5049016;28;20037;-80
2021/12/04 07:28:51;;;;;;;14.43;8.23;;;;;;;;;;5052912;28;20042;-80
2021/12/04 07:31:17;;;;;;;11.48;8.07;;;;;;;;;;5049312;28;20080;-79
2021/12/04 07:33:43;;;;;;;12.15;7.82;;;;;;;;;;5047068;28;20052;-83
2021/12/04 07:36:09;;;;;;;10.48;7.10;;;;;;;;;;5031112;28;20041;-80
2021/12/04 07:38:35;;;;;;;12.25;6.93;;;;;;;;;;5047124;28;20393;-78
2021/12/04 07:41:03;;;;;;;14.50;7.35;;;;;;;;;;5028188;28;20048;-79
2021/12/04 07:43:29;;;;;;;11.88;8.23;;;;;;;;;;5043249;28;20037;-79
2021/12/04 07:45:55;;;;;;;10.95;7.55;;;;;;;;;;5042999;28;20072;-77
2021/12/04 07:48:21;;;;;;;14.45;8.23;;;;;;;;;;5041583;28;20037;-80
2021/12/04 07:50:47;;;;;;;15.10;9.88;;;;;;;;;;5032604;28;20132;-80
2021/12/04 07:53:13;;;;;;;12.75;8.40;;;;;;;;;;5029515;28;20065;-78
2021/12/04 07:55:39;;;;;;;14.23;7.72;;;;;;;;;;5025165;28;20144;-78
2021/12/04 07:58:05;;;;;;;12.50;8.98;;;;;;;;;;5041483;28;20064;-79
2021/12/04 08:00:31;;;;;;;13.98;8.70;;;;;;;;;;5044014;28;20041;-78
2021/12/04 08:02:57;;;;;;;11.07;7.65;;;;;;;;;;5043928;28;20103;-79
2021/12/04 08:05:23;;;;;;;12.32;7.55;;;;;;;;;;5028273;28;20055;-82
2021/12/04 08:07:50;;;;;;;13.90;7.55;;;;;;;;;;5044641;28;20037;-82
2021/12/04 08:10:16;;;;;;;19.30;8.57;;;;;;;;;;5046674;28;20099;-82
2021/12/04 08:12:42;;;;;;;12.50;8.32;;;;;;;;;;5048429;28;20037;-79
2021/12/04 08:15:09;;;;;;;11.20;7.35;;;;;;;;;;5031320;28;20344;-79
2021/12/04 08:17:35;;;;;;;9.63;7.70;;;;;;;;;;5047257;28;20132;-79
2021/12/04 08:20:03;;;;;;;11.82;7.75;;;;;;;;;;5028261;28;20461;-82
2021/12/04 08:22:29;;;;;;;12.93;8.55;;;;;;;;;;5044717;28;20045;-82
2021/12/04 08:24:55;;;;;;;11.75;8.55;;;;;;;;;;5028122;28;20513;-79
2021/12/04 08:27:21;;;;;;;10.32;7.10;;;;;;;;;;5044326;28;20076;-82
2021/12/04 08:29:47;;;;;;;10.82;7.38;;;;;;;;;;5027911;28;20067;-82
2021/12/04 08:32:13;;;;;;;10.63;7.30;;;;;;;;;;5045407;28;20045;-82
2021/12/04 08:34:39;;;;;;;10.55;7.65;;;;;;;;;;5045839;28;20045;-81
2021/12/04 08:37:05;;;;;;;11.00;6.65;;;;;;;;;;5055660;28;20077;-81
2021/12/04 08:39:31;;;;;;;11.18;6.93;;;;;;;;;;5031695;28;20065;-82
2021/12/04 08:41:58;;;;;;;14.05;8.45;;;;;;;;;;5046928;28;20048;-79
2021/12/04 08:44:24;;;;;;;8.65;6.72;;;;;;;;;;5027558;28;20041;-79
2021/12/04 08:46:50;;;;;;;8.73;6.68;;;;;;;;;;5042176;28;20057;-81
2021/12/04 08:49:16;;;;;;;9.40;7.13;;;;;;;;;;5042860;28;20042;-80
2021/12/04 08:51:42;;;;;;;8.70;6.78;;;;;;;;;;5041872;28;20045;-79
2021/12/04 08:54:08;;;;;;;9.25;6.38;;;;;;;;;;5043669;28;20092;-79
2021/12/04 08:56:34;;;;;;;12.15;7.35;;;;;;;;;;5041810;28;20041;-79
2021/12/04 08:59:01;;;;;;;9.50;7.30;;;;;;;;;;5043518;28;20492;-78
2021/12/04 09:01:29;;;;;;;11.48;7.32;;;;;;;;;;5042311;28;20044;-78
2021/12/04 09:04:00;;;;;;;8.27;6.32;;;;;;;;;;5042798;28;20045;-79
2021/12/04 09:06:26;;;;;;;7.32;5.65;;;;;;;;;;5045409;28;20472;-78
2021/12/04 09:08:52;;;;;;;7.95;5.70;;;;;;;;;;5029581;28;20037;-81
2021/12/04 09:11:27;;;;;;;7.50;5.85;;;;;;;;;;5030678;28;20088;-79
2021/12/04 09:13:53;;;;;;;7.45;5.50;;;;;;;;;;5030032;28;20068;-81
2021/12/04 09:16:19;;;;;;;8.23;5.88;;;;;;;;;;5029635;28;20154;-79
2021/12/04 09:18:45;;;;;;;7.82;5.47;;;;;;;;;;5045832;28;20096;-78
2021/12/04 09:21:11;;;;;;;6.28;5.00;;;;;;;;;;5049565;28;20048;-80
2021/12/04 09:23:40;;;;;;;9.05;5.55;;;;;;;;;;5059996;28;20046;-79
2021/12/04 09:26:11;;;;;;;8.02;5.30;;;;;;;;;;5042252;28;20036;-80
2021/12/04 09:28:41;;;;;;;7.78;5.00;;;;;;;;;;5050122;28;20168;-81
2021/12/04 09:34:27;;;;;;;7.60;5.50;;;;;;;;;;5045050;28;20064;-81
2021/12/04 10:01:32;;;;;;;9.13;6.05;;;;;;;;;;5043254;28;20437;-79
2021/12/04 10:12:12;;;;;;;11.23;5.75;;;;;;;;;;5056388;28;20030;-79
2021/12/04 10:15:22;;;;;;;9.23;6.32;;;;;;;;;;5053421;28;20052;-79
2021/12/04 10:18:01;;;;;;;;;;;;;;;;;;5045375;28;20099;-80
2021/12/04 10:33:52;;;;;;;7.63;4.70;;;;;;;;;;5044774;28;20041;-81
2021/12/04 10:36:31;;;;;;;6.05;3.88;;;;;;;;;;5044499;28;20083;-82
2021/12/04 10:38:57;;;;;;;5.20;4.22;;;;;;;;;;5044434;28;20052;-83
2021/12/04 10:41:33;;;;;;;6.78;4.28;;;;;;;;;;5027695;28;20052;-83
2021/12/04 10:44:15;;;;;;;7.95;4.20;;;;;;;;;;5028402;28;20081;-82
2021/12/04 10:46:52;;;;;;;5.40;3.40;;;;;;;;;;5044579;28;20055;-83
2021/12/04 10:49:29;;;;;;;6.95;3.53;;;;;;;;;;5044997;28;20412;-82
2021/12/04 10:52:02;;;;;;;5.03;3.28;;;;;;;;;;5029357;28;20098;-83
2021/12/04 10:54:32;;;;;;;4.18;3.08;;;;;;;;;;5051785;28;20505;-82
2021/12/04 11:00:22;;;;;;;4.57;2.60;;;;;;;;;;5059199;28;20067;-80
2021/12/04 11:02:45;;;;;;;4.88;2.60;;;;;;;;;;5052674;28;20046;-84
2021/12/04 11:05:52;;;;;;;5.05;3.20;;;;;;;;;;5048002;28;20104;-82
2021/12/04 11:28:07;;;;;;;5.43;3.08;;;;;;;;;;5046589;28;20038;-83
2021/12/04 11:38:38;;;;;;;6.13;2.85;;;;;;;;;;5044569;28;20106;-84
2021/12/04 11:43:54;;;;;;;4.15;2.85;;;;;;;;;;5046615;28;20073;-85
2021/12/04 11:46:25;;;;;;;6.93;3.05;;;;;;;;;;5052405;28;20026;-82
2021/12/04 11:48:52;;;;;;;4.40;3.05;;;;;;;;;;5043190;28;20038;-78
2021/12/04 11:51:19;;;;;;;3.65;2.97;;;;;;;;;;5049082;28;20049;-83
2021/12/04 11:53:45;;;;;;;6.93;3.75;;;;;;;;;;5029399;28;20063;-84
2021/12/04 11:56:29;;;;;;;3.97;3.03;;;;;;;;;;5045483;28;20100;-84
2021/12/04 11:58:55;;;;;;;4.43;3.05;;;;;;;;;;5037188;28;20092;-83
2021/12/04 12:01:22;;;;;;;4.15;3.20;;;;;;;;;;5055690;28;20029;-83
2021/12/04 12:03:52;;;;;;;6.55;3.85;;;;;;;;;;5055591;28;20049;-83
2021/12/04 12:06:26;;;;;;;4.32;3.28;;;;;;;;;;5055914;28;20088;-83
2021/12/04 12:08:59;;;;;;;7.32;4.07;;;;;;;;;;5051998;28;20071;-81
2021/12/04 12:11:26;;;;;;;5.13;3.40;;;;;;;;;;5038437;28;20048;-82
2021/12/04 12:13:57;;;;;;;4.15;3.20;;;;;;;;;;5039004;28;20116;-84
2021/12/04 12:16:24;;;;;;;4.75;3.42;;;;;;;;;;5057254;28;20054;-83
2021/12/04 12:18:54;;;;;;;7.20;3.05;;;;;;;;;;5030458;28;20041;-82
2021/12/04 12:21:28;;;;;;;4.13;2.78;;;;;;;;;;5041482;28;20037;-85
2021/12/04 12:37:49;;;;;;;2.50;1.98;;;;;;;;;;5042184;28;20048;-82
2021/12/04 12:40:16;;;;;;;2.90;1.80;;;;;;;;;;5023640;28;20065;-82
2021/12/04 12:42:42;;;;;;;4.50;2.55;;;;;;;;;;5041750;28;20363;-81
2021/12/04 12:45:18;;;;;;;2.90;2.25;;;;;;;;;;5024693;28;20052;-82
2021/12/04 12:47:51;;;;;;;3.83;2.75;;;;;;;;;;5041520;28;20369;-82
2021/12/04 12:50:37;;;;;;;2.47;1.90;;;;;;;;;;5041426;28;20124;-83
2021/12/04 12:53:06;;;;;;;2.40;1.65;;;;;;;;;;5042525;28;20053;-82
2021/12/04 12:55:34;;;;;;;3.08;2.03;;;;;;;;;;5044379;28;20041;-81
2021/12/04 12:58:11;;;;;;;3.13;1.92;;;;;;;;;;5043005;28;20052;-81
2021/12/04 13:11:48;;;;;;;5.13;2.33;;;;;;;;;;5042244;28;20038;-83
2021/12/04 13:14:15;;;;;;;4.47;2.10;;;;;;;;;;5025608;28;20037;-81
2021/12/04 13:16:47;;;;;;;3.65;2.30;;;;;;;;;;5025466;28;20057;-83
2021/12/04 13:19:14;;;;;;;2.65;2.03;;;;;;;;;;5042005;28;20071;-82
2021/12/04 13:21:42;;;;;;;3.00;2.00;;;;;;;;;;5027782;28;20060;-82
2021/12/04 13:24:10;;;;;;;5.13;2.63;;;;;;;;;;5044364;28;20044;-83
2021/12/04 13:26:36;;;;;;;3.75;2.40;;;;;;;;;;5043914;28;20093;-83
2021/12/04 13:29:03;;;;;;;2.55;2.13;;;;;;;;;;5044376;28;20067;-83
2021/12/04 13:31:29;;;;;;;3.38;1.98;;;;;;;;;;5044701;28;20053;-83
2021/12/04 13:33:55;;;;;;;5.70;2.47;;;;;;;;;;5029604;28;20033;-82
2021/12/04 13:36:23;;;;;;;4.03;1.90;;;;;;;;;;5028121;28;20049;-83
2021/12/04 13:38:53;;;;;;;3.25;1.85;;;;;;;;;;5044190;28;20080;-82
2021/12/04 13:41:19;;;;;;;3.28;1.75;;;;;;;;;;5038342;28;20100;-83
2021/12/04 13:43:50;;;;;;;3.58;2.33;;;;;;;;;;5043326;28;20048;-83
2021/12/04 13:46:16;;;;;;;3.00;2.05;;;;;;;;;;5038252;28;20038;-83
2021/12/04 13:48:42;;;;;;;4.60;2.22;;;;;;;;;;5024564;28;20053;-83
2021/12/04 13:51:08;;;;;;;3.03;2.25;;;;;;;;;;5026139;28;20041;-83
2021/12/04 13:53:36;;;;;;;3.30;2.20;;;;;;;;;;5030779;28;20037;-83
2021/12/04 13:56:12;;;;;;;4.65;1.70;;;;;;;;;;5031541;28;20034;-83
2021/12/04 13:58:45;;;;;;;2.20;1.65;;;;;;;;;;5045210;28;20095;-83
2021/12/04 14:01:11;;;;;;;2.90;1.80;;;;;;;;;;5054931;28;20063;-83
2021/12/04 14:03:38;;;;;;;4.38;2.40;;;;;;;;;;5027894;28;20062;-83
2021/12/04 14:06:09;;;;;;;3.17;1.98;;;;;;;;;;5033184;28;20052;-84
2021/12/04 14:08:35;;;;;;;3.92;1.65;;;;;;;;;;5019315;28;20041;-80
2021/12/04 14:11:01;;;;;;;2.45;1.70;;;;;;;;;;5050125;28;20041;-83
2021/12/04 14:13:27;;;;;;;2.88;1.73;;;;;;;;;;5052434;28;20037;-83
2021/12/04 14:15:55;;;;;;;3.25;1.77;;;;;;;;;;5036184;28;20127;-81
2021/12/04 14:18:22;;;;;;;5.70;2.88;;;;;;;;;;5054010;28;20068;-82
2021/12/04 14:20:52;;;;;;;3.40;2.20;;;;;;;;;;5032792;28;20472;-84
2021/12/04 14:23:18;;;;;;;4.85;2.78;;;;;;;;;;5029205;28;20061;-81
2021/12/04 14:25:45;;;;;;;4.78;3.30;;;;;;;;;;5033346;28;20071;-82
2021/12/04 14:28:18;;;;;;;4.53;2.90;;;;;;;;;;5033003;28;20045;-82
2021/12/04 14:30:44;;;;;;;3.28;2.50;;;;;;;;;;5049527;28;20045;-83
2021/12/04 14:33:11;;;;;;;3.60;2.65;;;;;;;;;;5035364;28;20093;-81
2021/12/04 14:35:38;;;;;;;4.50;2.72;;;;;;;;;;5038176;28;20033;-83
2021/12/04 14:38:06;;;;;;;3.35;2.40;;;;;;;;;;5055222;28;20057;-83
2021/12/04 14:40:40;;;;;;;3.88;2.53;;;;;;;;;;5054392;28;20093;-80
2021/12/04 14:43:07;;;;;;;8.60;2.67;;;;;;;;;;5057948;28;20106;-80
2021/12/04 14:45:34;;;;;;;4.38;2.95;;;;;;;;;;5057767;28;20061;-80
2021/12/04 14:48:10;;;;;;;3.72;2.50;;;;;;;;;;5051375;28;20048;-80
2021/12/04 14:50:37;;;;;;;3.35;2.60;;;;;;;;;;5031093;28;20048;-80
2021/12/04 14:53:04;;;;;;;5.18;2.63;;;;;;;;;;5027695;28;20049;-82
2021/12/04 14:55:34;;;;;;;6.97;4.15;;;;;;;;;;5024666;28;20437;-81
2021/12/04 14:58:00;;;;;;;4.55;2.70;;;;;;;;;;5041334;28;20041;-82
2021/12/04 15:00:30;;;;;;;5.93;3.92;;;;;;;;;;5042112;28;20044;-82
2021/12/04 15:02:58;;;;;;;5.47;3.25;;;;;;;;;;5041407;28;20037;-81
2021/12/04 15:05:24;;;;;;;8.73;4.20;;;;;;;;;;5042993;28;20037;-81
2021/12/04 15:07:58;;;;;;;6.15;3.53;;;;;;;;;;5025720;28;20064;-79
2021/12/04 15:10:24;;;;;;;6.50;4.03;;;;;;;;;;5043588;28;20033;-82
2021/12/04 15:12:51;;;;;;;5.90;4.85;;;;;;;;;;5025003;28;20440;-77
2021/12/04 15:15:20;;;;;;;7.47;5.22;;;;;;;;;;5047715;28;20041;-80
2021/12/04 15:17:53;;;;;;;7.18;5.00;;;;;;;;;;5045290;28;20110;-82
2021/12/04 15:20:27;;;;;;;7.25;4.05;;;;;;;;;;5040922;28;20049;-82
2021/12/04 15:22:57;;;;;;;7.88;5.28;;;;;;;;;;5041494;28;20045;-80
2021/12/04 15:25:25;;;;;;;8.65;6.30;;;;;;;;;;5044582;28;20037;-81
2021/12/04 15:27:51;;;;;;;9.82;6.30;;;;;;;;;;5041044;28;20065;-83
2021/12/04 15:30:18;;;;;;;8.05;6.22;;;;;;;;;;5040637;28;20052;-83
2021/12/04 15:32:44;;;;;;;9.85;5.60;;;;;;;;;;5022795;28;20041;-83
2021/12/04 15:35:29;;;;;;;9.80;6.78;;;;;;;;;;5040718;28;20059;-83
2021/12/04 15:38:07;;;;;;;9.77;5.18;;;;;;;;;;5025821;28;20422;-84
2021/12/04 15:40:44;;;;;;;10.43;5.35;;;;;;;;;;5041464;28;20064;-82
2021/12/04 15:43:23;;;;;;;7.63;5.53;;;;;;;;;;5049415;28;20018;-80
2021/12/04 15:46:03;;;;;;;9.52;5.45;;;;;;;;;;5059068;28;20063;-78
2021/12/04 15:53:53;;;;;;;5.55;3.72;;;;;;;;;;5041726;28;20048;-80
2021/12/04 15:56:29;;;;;;;6.35;3.95;;;;;;;;;;5024829;28;20457;-80
2021/12/04 15:58:55;;;;;;;6.78;4.05;;;;;;;;;;5022468;28;20100;-81
2021/12/04 16:01:26;;;;;;;5.53;3.72;;;;;;;;;;5022072;28;20037;-81
2021/12/04 16:03:52;;;;;;;4.28;3.30;;;;;;;;;;5039596;28;20358;-81
2021/12/04 16:06:19;;;;;;;5.38;3.65;;;;;;;;;;5039314;28;20045;-81
2021/12/04 16:08:45;;;;;;;4.20;3.28;;;;;;;;;;5023196;28;20111;-80
2021/12/04 16:11:12;;;;;;;5.03;3.22;;;;;;;;;;5023198;28;20468;-81
2021/12/04 16:13:38;;;;;;;3.75;2.35;;;;;;;;;;5040551;28;20045;-80
2021/12/04 16:16:12;;;;;;;3.20;1.90;;;;;;;;;;5022611;28;20059;-81
2021/12/04 16:18:38;;;;;;;2.97;2.00;;;;;;;;;;5022315;28;20045;-80
2021/12/04 16:21:05;;;;;;;2.83;1.70;;;;;;;;;;5025943;28;20053;-81
2021/12/04 16:23:34;;;;;;;5.00;2.03;;;;;;;;;;5040393;28;20318;-83
2021/12/04 16:26:00;;;;;;;2.65;1.98;;;;;;;;;;5039396;28;20048;-80
2021/12/04 16:31:16;;;;;;;2.55;1.88;;;;;;;;;;5038985;28;20046;-79
2021/12/04 16:33:48;;;;;;;2.85;2.17;;;;;;;;;;5038903;28;20092;-81
2021/12/04 16:37:03;;;;;;;3.15;2.40;;;;;;;;;;5023949;28;20065;-81
2021/12/04 16:39:08;;;;;;;2.78;2.13;;;;;;;;;;5039777;28;20045;-81
2021/12/04 16:41:35;;;;;;;4.38;2.20;;;;;;;;;;5040144;28;20079;-80
2021/12/04 16:44:01;;;;;;;1.95;1.45;;;;;;;;;;5042171;28;20037;-79
2021/12/04 16:46:29;;;;;;;2.65;1.75;;;;;;;;;;5045079;28;20101;-78
2021/12/04 16:48:56;;;;;;;3.97;2.00;;;;;;;;;;5037443;28;20025;-78
2021/12/04 16:59:23;;;;;;;3.95;2.53;;;;;;;;;;5040124;28;20045;-83
2021/12/04 17:01:50;;;;;;;4.07;2.47;;;;;;;;;;5039696;28;20124;-83
2021/12/04 17:04:16;;;;;;;4.30;2.35;;;;;;;;;;5039115;28;20442;-82
2021/12/04 17:06:42;;;;;;;3.85;2.53;;;;;;;;;;5039030;28;20369;-82
2021/12/04 17:09:09;;;;;;;4.50;2.90;;;;;;;;;;5039386;28;20112;-82
2021/12/04 17:11:35;;;;;;;4.45;3.15;;;;;;;;;;5040309;28;20064;-80
2021/12/04 17:14:01;;;;;;;4.45;3.00;;;;;;;;;;5040797;28;20034;-78
2021/12/04 17:16:27;;;;;;;5.57;3.50;;;;;;;;;;5022455;28;20069;-79
2021/12/04 17:19:01;;;;;;;5.35;3.95;;;;;;;;;;5040690;28;20048;-82
2021/12/04 17:21:28;;;;;;;5.28;4.05;;;;;;;;;;5024522;28;20883;-82
2021/12/04 17:23:54;;;;;;;6.47;4.55;;;;;;;;;;5039987;28;20038;-83
2021/12/04 17:26:21;;;;;;;5.40;4.13;;;;;;;;;;5026503;28;20056;-82
2021/12/04 17:28:47;;;;;;;5.25;4.22;;;;;;;;;;5029068;28;20431;-81
2021/12/04 17:31:16;;;;;;;6.95;4.82;;;;;;;;;;5043883;28;20045;-82
2021/12/04 17:33:44;;;;;;;7.38;4.50;;;;;;;;;;5027143;28;20041;-79
2021/12/04 17:36:10;;;;;;;7.97;4.38;;;;;;;;;;5045135;28;20037;-80
2021/12/04 17:38:37;;;;;;;10.80;5.05;;;;;;;;;;5045369;28;20045;-80
2021/12/04 17:41:03;;;;;;;9.25;5.35;;;;;;;;;;5041240;28;20048;-80
2021/12/04 17:43:29;;;;;;;9.23;5.93;;;;;;;;;;5040246;28;20037;-80
2021/12/04 17:45:55;;;;;;;7.28;6.03;;;;;;;;;;5042909;28;20048;-81
2021/12/04 17:48:23;;;;;;;8.35;6.50;;;;;;;;;;5042073;28;20444;-81
2021/12/04 17:50:49;;;;;;;11.77;8.20;;;;;;;;;;5045239;28;20045;-83
2021/12/04 17:53:15;;;;;;;11.80;9.55;;;;;;;;;;5031157;28;20445;-81
2021/12/04 17:55:41;;;;;;;11.60;9.80;;;;;;;;;;5029811;28;20081;-81
2021/12/04 17:58:07;;;;;;;10.85;8.50;;;;;;;;;;5049943;28;20072;-82
2021/12/04 18:00:40;;;;;;;12.07;9.43;;;;;;;;;;5033918;28;20037;-80